createdAt,value
2019-04-30T00:01:17.015Z,9.20
2019-04-30T00:04:16.457Z,6.30
2019-04-30T00:07:15.522Z,8.90
2019-04-30T00:10:10.833Z,9.55
2019-04-30T00:13:10.509Z,7.55
2019-04-30T00:16:05.373Z,9.65
2019-04-30T00:19:01.717Z,10.88
2019-04-30T00:22:00.270Z,14.70
2019-04-30T00:24:55.665Z,8.55
2019-04-30T00:27:51.392Z,16.10
2019-04-30T00:30:47.790Z,11.15
2019-04-30T00:33:45.514Z,7.87
2019-04-30T00:36:41.039Z,10.08
2019-04-30T00:39:37.382Z,9.00
2019-04-30T00:42:35.682Z,12.15
2019-04-30T00:45:35.371Z,9.10
2019-04-30T00:48:31.359Z,7.25
2019-04-30T00:51:27.082Z,9.50
2019-04-30T00:54:27.971Z,7.58
2019-04-30T00:57:21.891Z,12.45
2019-04-30T01:00:25.066Z,9.65
2019-04-30T01:03:21.681Z,8.63
2019-04-30T01:06:26.758Z,8.75
2019-04-30T01:09:16.010Z,9.73
2019-04-30T01:12:11.425Z,7.90
2019-04-30T01:15:11.183Z,12.28
2019-04-30T01:18:05.056Z,6.87
2019-04-30T01:21:02.912Z,10.05
2019-04-30T01:23:59.128Z,11.03
2019-04-30T01:26:55.679Z,7.65
2019-04-30T01:29:52.307Z,10.98
2019-04-30T01:33:01.948Z,7.87
2019-04-30T01:35:56.923Z,10.35
2019-04-30T01:38:53.971Z,8.08
2019-04-30T01:41:50.540Z,8.30
2019-04-30T01:44:50.495Z,7.80
2019-04-30T01:47:44.390Z,7.50
2019-04-30T01:50:42.179Z,8.23
2019-04-30T01:53:38.840Z,5.78
2019-04-30T01:56:59.609Z,7.87
2019-04-30T02:00:29.602Z,8.33
2019-04-30T02:03:25.158Z,9.43
2019-04-30T02:06:21.798Z,7.53
2019-04-30T02:09:18.831Z,7.70
2019-04-30T02:12:16.652Z,9.03
2019-04-30T02:15:12.323Z,6.47
2019-04-30T02:18:08.766Z,6.35
2019-04-30T02:21:05.171Z,8.90
2019-04-30T02:24:01.941Z,7.15
2019-04-30T02:26:59.472Z,9.03
2019-04-30T02:29:55.601Z,8.53
2019-04-30T02:32:53.555Z,7.05
2019-04-30T02:35:56.874Z,8.08
2019-04-30T02:38:54.084Z,6.45
2019-04-30T02:41:50.914Z,8.78
2019-04-30T02:44:50.436Z,10.10
2019-04-30T02:47:46.389Z,12.05
2019-04-30T02:50:44.672Z,10.43
2019-04-30T02:54:23.971Z,8.23
2019-04-30T02:57:23.122Z,12.25
2019-04-30T03:00:20.366Z,8.28
2019-04-30T03:03:20.303Z,10.05
2019-04-30T03:06:14.828Z,10.53
2019-04-30T03:09:11.397Z,13.25
2019-04-30T03:12:08.655Z,6.45
2019-04-30T03:15:03.910Z,11.38
2019-04-30T03:18:10.335Z,7.58
2019-04-30T03:21:09.816Z,8.73
2019-04-30T03:24:06.786Z,9.15
2019-04-30T03:27:03.136Z,8.30
2019-04-30T03:30:00.130Z,10.38
2019-04-30T03:32:57.316Z,8.90
2019-04-30T03:35:55.084Z,6.78
2019-04-30T03:38:51.809Z,8.80
2019-04-30T03:41:50.189Z,8.35
2019-04-30T03:44:45.452Z,8.83
2019-04-30T03:47:43.226Z,9.65
2019-04-30T03:50:50.348Z,9.60
2019-04-30T03:53:36.024Z,9.10
2019-04-30T03:56:31.740Z,7.53
2019-04-30T03:59:30.090Z,10.15
2019-04-30T04:02:42.246Z,8.85
2019-04-30T04:06:03.122Z,12.60
2019-04-30T04:09:03.822Z,11.43
2019-04-30T04:12:20.465Z,11.63
2019-04-30T04:15:16.314Z,9.70
2019-04-30T04:18:12.811Z,11.18
2019-04-30T04:21:16.395Z,10.43
2019-04-30T04:24:06.806Z,10.40
2019-04-30T04:27:02.659Z,7.35
2019-04-30T04:30:00.742Z,9.85
2019-04-30T04:32:55.091Z,11.45
2019-04-30T04:35:51.420Z,8.40
2019-04-30T04:38:50.416Z,7.87
2019-04-30T04:41:45.055Z,7.50
2019-04-30T04:44:43.378Z,6.65
2019-04-30T04:47:40.158Z,12.90
2019-04-30T04:50:36.979Z,7.83
2019-04-30T04:53:33.626Z,8.43
2019-04-30T04:56:31.307Z,8.50
2019-04-30T04:59:29.688Z,13.60
2019-04-30T05:02:49.558Z,10.00
2019-04-30T05:05:44.603Z,7.75
2019-04-30T05:08:42.300Z,9.38
2019-04-30T05:11:39.573Z,8.98
2019-04-30T05:14:36.182Z,7.97
2019-04-30T05:17:32.053Z,8.73
2019-04-30T05:20:29.295Z,8.08
2019-04-30T05:26:48.773Z,8.78
2019-04-30T05:29:45.383Z,8.80
2019-04-30T05:32:40.837Z,7.45
2019-04-30T05:35:38.873Z,7.17
2019-04-30T05:38:34.669Z,11.05
2019-04-30T05:41:38.964Z,10.32
2019-04-30T05:44:35.337Z,9.15
2019-04-30T05:47:32.012Z,6.75
2019-04-30T05:50:29.595Z,12.40
2019-04-30T05:53:25.978Z,6.10
2019-04-30T05:56:39.497Z,8.05
2019-04-30T05:59:50.715Z,7.90
2019-04-30T06:02:47.159Z,8.13
2019-04-30T06:05:46.178Z,5.92
2019-04-30T06:08:50.055Z,9.38
2019-04-30T06:12:18.762Z,7.67
2019-04-30T06:15:23.540Z,7.95
2019-04-30T06:18:23.427Z,7.65
2019-04-30T06:21:21.586Z,8.53
2019-04-30T06:24:18.854Z,7.95
2019-04-30T06:27:15.579Z,7.65
2019-04-30T06:30:13.150Z,7.47
2019-04-30T06:33:09.320Z,8.08
2019-04-30T06:36:06.179Z,10.68
2019-04-30T06:39:01.489Z,7.75
2019-04-30T06:42:06.439Z,8.15
2019-04-30T06:44:59.043Z,7.03
2019-04-30T06:47:56.597Z,7.58
2019-04-30T06:50:53.129Z,7.85
2019-04-30T06:53:51.339Z,7.25
2019-04-30T06:56:48.538Z,9.50
2019-04-30T06:59:45.330Z,9.43
2019-04-30T07:02:41.900Z,9.40
2019-04-30T07:05:39.079Z,9.70
2019-04-30T07:08:59.531Z,7.95
2019-04-30T07:12:02.696Z,8.58
2019-04-30T07:14:59.276Z,10.48
2019-04-30T07:17:54.849Z,8.55
2019-04-30T07:20:52.790Z,7.22
2019-04-30T07:23:48.561Z,9.05
2019-04-30T07:26:44.517Z,9.88
2019-04-30T07:29:40.156Z,10.82
2019-04-30T07:32:35.746Z,13.35
2019-04-30T07:35:32.197Z,8.40
2019-04-30T07:38:29.513Z,9.35
2019-04-30T07:41:25.660Z,11.57
2019-04-30T07:44:32.693Z,7.72
2019-04-30T07:47:19.769Z,10.15
2019-04-30T07:50:16.473Z,8.77
2019-04-30T07:53:12.544Z,5.77
2019-04-30T07:56:24.378Z,10.80
2019-04-30T07:59:06.764Z,7.50
2019-04-30T08:02:10.883Z,8.37
2019-04-30T08:05:10.563Z,7.80
2019-04-30T08:08:20.126Z,6.67
2019-04-30T08:11:05.977Z,9.70
2019-04-30T08:14:01.484Z,8.13
2019-04-30T08:16:58.940Z,7.87
2019-04-30T08:19:54.265Z,8.90
2019-04-30T08:22:50.582Z,9.93
2019-04-30T08:25:48.733Z,12.10
2019-04-30T08:28:43.381Z,8.30
2019-04-30T08:31:40.696Z,12.33
2019-04-30T08:34:35.581Z,11.10
2019-04-30T08:37:31.690Z,11.17
2019-04-30T08:40:29.737Z,8.73
2019-04-30T08:43:25.699Z,9.83
2019-04-30T08:46:23.216Z,7.07
2019-04-30T08:49:19.861Z,10.90
2019-04-30T08:52:16.397Z,6.97
2019-04-30T08:55:16.648Z,7.40
2019-04-30T08:58:12.442Z,7.03
2019-04-30T09:01:06.087Z,8.00
2019-04-30T09:04:02.254Z,9.80
2019-04-30T09:06:59.957Z,9.50
2019-04-30T09:09:55.155Z,7.80
2019-04-30T09:12:51.976Z,8.43
2019-04-30T09:15:49.232Z,10.00
2019-04-30T09:18:46.707Z,12.63
2019-04-30T09:21:42.121Z,6.60
2019-04-30T09:24:39.210Z,9.83
2019-04-30T09:27:35.594Z,7.17
2019-04-30T09:30:31.886Z,6.87
2019-04-30T09:33:29.263Z,7.90
2019-04-30T09:36:24.619Z,10.87
2019-04-30T09:39:23.245Z,13.93
2019-04-30T09:42:19.584Z,7.03
2019-04-30T09:45:16.253Z,7.73
2019-04-30T09:48:11.987Z,8.77
2019-04-30T09:51:08.199Z,7.27
2019-04-30T09:54:05.228Z,7.83
2019-04-30T09:57:01.340Z,7.87
2019-04-30T09:59:57.575Z,7.30
2019-04-30T10:02:53.979Z,8.83
2019-04-30T10:05:50.240Z,9.73
2019-04-30T10:08:49.265Z,10.53
2019-04-30T10:11:53.487Z,9.70
2019-04-30T10:14:49.441Z,7.30
2019-04-30T10:17:45.833Z,11.70
2019-04-30T10:20:43.770Z,13.83
2019-04-30T10:23:39.251Z,8.33
2019-04-30T10:26:36.050Z,7.10
2019-04-30T10:29:32.681Z,8.80
2019-04-30T10:32:29.983Z,8.33
2019-04-30T10:35:29.457Z,10.60
2019-04-30T10:38:25.326Z,8.47
2019-04-30T10:41:20.697Z,10.20
2019-04-30T10:44:15.889Z,9.50
2019-04-30T10:47:12.281Z,11.63
2019-04-30T10:50:09.924Z,8.17
2019-04-30T10:53:06.181Z,9.63
2019-04-30T10:56:02.195Z,10.87
2019-04-30T10:58:58.569Z,7.97
2019-04-30T11:01:55.669Z,7.50
2019-04-30T11:04:51.184Z,9.50
2019-04-30T11:07:49.525Z,8.07
2019-04-30T11:10:45.921Z,8.30
2019-04-30T11:13:41.901Z,10.93
2019-04-30T11:16:37.956Z,9.63
2019-04-30T11:19:36.061Z,8.30
2019-04-30T11:22:32.484Z,8.50
2019-04-30T11:25:31.338Z,7.03
2019-04-30T11:28:27.411Z,7.63
2019-04-30T11:31:52.177Z,8.00
2019-04-30T11:34:48.195Z,8.67
2019-04-30T11:37:43.669Z,8.73
2019-04-30T11:40:40.186Z,9.40
2019-04-30T11:43:36.163Z,10.00
2019-04-30T11:47:11.415Z,8.67
2019-04-30T11:50:13.643Z,7.07
2019-04-30T11:53:22.622Z,7.77
2019-04-30T11:56:06.337Z,10.10
2019-04-30T11:59:01.721Z,8.93
2019-04-30T12:01:58.817Z,10.43
2019-04-30T12:04:54.185Z,8.47
2019-04-30T12:08:05.923Z,9.97
2019-04-30T12:11:04.550Z,10.57
2019-04-30T12:14:00.081Z,12.13
2019-04-30T12:16:56.328Z,10.77
2019-04-30T12:19:51.600Z,10.63
2019-04-30T12:22:49.352Z,12.13
2019-04-30T12:25:45.586Z,8.40
2019-04-30T12:28:41.614Z,9.73
2019-04-30T12:31:38.596Z,7.60
2019-04-30T12:34:34.829Z,7.93
2019-04-30T12:37:29.829Z,9.43
2019-04-30T12:40:31.710Z,8.10
2019-04-30T12:43:24.061Z,11.10
2019-04-30T12:46:21.309Z,10.13
2019-04-30T12:49:19.010Z,10.37
2019-04-30T12:52:20.504Z,9.20
2019-04-30T12:55:34.986Z,8.93
2019-04-30T12:58:30.236Z,15.27
2019-04-30T13:01:31.689Z,8.10
2019-04-30T13:04:24.167Z,9.77
2019-04-30T13:07:21.519Z,7.33
2019-04-30T13:10:17.962Z,13.70
2019-04-30T13:13:14.586Z,12.37
2019-04-30T13:16:10.699Z,10.70
2019-04-30T13:19:06.624Z,12.83
2019-04-30T13:22:02.172Z,8.93
2019-04-30T13:24:59.389Z,10.80
2019-04-30T13:27:58.034Z,9.50
2019-04-30T13:30:53.466Z,12.83
2019-04-30T13:33:53.556Z,9.23
2019-04-30T13:36:50.526Z,10.17
2019-04-30T13:39:53.722Z,16.03
2019-04-30T13:42:50.152Z,8.70
2019-04-30T13:45:45.625Z,11.30
2019-04-30T13:48:41.834Z,10.70
2019-04-30T13:51:37.161Z,10.67
2019-04-30T13:54:32.826Z,9.87
2019-04-30T13:57:28.097Z,9.40
2019-04-30T14:00:26.361Z,10.43
2019-04-30T14:03:29.125Z,13.00
2019-04-30T14:06:26.575Z,7.80
2019-04-30T14:09:26.117Z,8.27
2019-04-30T14:12:22.100Z,9.27
2019-04-30T14:15:20.297Z,10.60
2019-04-30T14:18:27.939Z,10.00
2019-04-30T14:21:12.947Z,7.70
2019-04-30T14:24:09.523Z,9.90
2019-04-30T14:27:05.087Z,9.40
2019-04-30T14:30:01.088Z,10.00
2019-04-30T14:32:56.362Z,11.53
2019-04-30T14:35:53.209Z,9.30
2019-04-30T14:38:50.627Z,9.63
2019-04-30T14:41:51.078Z,7.93
2019-04-30T14:44:45.256Z,8.73
2019-04-30T14:47:54.495Z,8.87
2019-04-30T14:50:50.556Z,11.47
2019-04-30T14:53:54.356Z,9.13
2019-04-30T14:56:55.989Z,7.50
2019-04-30T15:00:08.801Z,10.57
2019-04-30T15:03:09.455Z,8.00
2019-04-30T15:06:04.770Z,8.70
2019-04-30T15:09:00.318Z,6.83
2019-04-30T15:11:55.979Z,9.57
2019-04-30T15:14:52.487Z,8.97
2019-04-30T15:17:49.362Z,9.87
2019-04-30T15:20:45.728Z,12.20
2019-04-30T15:23:58.723Z,8.93
2019-04-30T15:26:46.448Z,8.77
2019-04-30T15:29:42.773Z,10.83
2019-04-30T15:32:41.297Z,11.07
2019-04-30T15:35:36.863Z,10.70
2019-04-30T15:38:51.010Z,9.70
2019-04-30T15:41:47.177Z,8.30
2019-04-30T15:44:45.435Z,7.07
2019-04-30T15:47:39.708Z,9.23
2019-04-30T15:50:35.579Z,8.13
2019-04-30T15:53:31.642Z,8.50
2019-04-30T15:56:39.948Z,10.57
2019-04-30T15:59:39.477Z,8.20
2019-04-30T16:02:56.830Z,8.17
2019-04-30T16:05:51.862Z,8.17
2019-04-30T16:09:00.613Z,9.43
2019-04-30T16:12:14.127Z,6.80
2019-04-30T16:15:14.361Z,9.33
2019-04-30T16:18:11.201Z,8.00
2019-04-30T16:21:11.035Z,10.60
2019-04-30T16:24:13.903Z,7.70
2019-04-30T16:27:11.119Z,8.30
2019-04-30T16:30:09.513Z,8.40
2019-04-30T16:33:09.563Z,7.50
2019-04-30T16:36:09.110Z,7.57
2019-04-30T16:39:15.939Z,10.13
2019-04-30T16:42:14.726Z,8.73
2019-04-30T16:45:11.068Z,9.03
2019-04-30T16:48:07.455Z,8.30
2019-04-30T16:51:08.715Z,8.93
2019-04-30T16:54:05.043Z,8.17
2019-04-30T16:57:06.110Z,6.70
2019-04-30T16:59:59.394Z,9.00
2019-04-30T17:03:01.308Z,7.10
2019-04-30T17:06:02.718Z,8.73
2019-04-30T17:09:06.956Z,8.77
2019-04-30T17:12:12.456Z,7.27
2019-04-30T17:15:19.133Z,9.23
2019-04-30T17:18:15.138Z,11.73
2019-04-30T17:21:12.761Z,8.63
2019-04-30T17:24:08.938Z,7.77
2019-04-30T17:27:16.349Z,8.43
2019-04-30T17:30:03.245Z,8.97
2019-04-30T17:32:59.759Z,10.37
2019-04-30T17:35:56.172Z,7.00
2019-04-30T17:38:52.125Z,9.40
2019-04-30T17:41:49.553Z,7.67
2019-04-30T17:44:56.431Z,7.23
2019-04-30T17:47:42.889Z,10.50
2019-04-30T17:50:39.751Z,10.28
2019-04-30T17:53:38.907Z,12.20
2019-04-30T17:56:34.722Z,12.60
2019-04-30T17:59:30.256Z,9.73
2019-04-30T18:02:29.419Z,12.53
2019-04-30T18:05:25.684Z,9.63
2019-04-30T18:08:22.393Z,8.47
2019-04-30T18:11:20.070Z,11.00
2019-04-30T18:14:16.209Z,10.03
2019-04-30T18:17:14.247Z,11.40
2019-04-30T18:20:23.601Z,11.63
2019-04-30T18:23:38.794Z,8.48
2019-04-30T18:26:37.731Z,10.13
2019-04-30T18:29:34.279Z,9.28
2019-04-30T18:32:30.881Z,11.43
2019-04-30T18:35:28.614Z,10.05
2019-04-30T18:38:24.474Z,13.25
2019-04-30T18:41:20.809Z,8.45
2019-04-30T18:44:19.049Z,9.73
2019-04-30T18:47:14.673Z,12.50
2019-04-30T18:50:12.277Z,11.78
2019-04-30T18:53:18.542Z,12.33
2019-04-30T18:56:15.027Z,13.15
2019-04-30T18:59:11.245Z,14.93
2019-04-30T19:02:10.204Z,13.28
2019-04-30T19:05:09.548Z,18.67
2019-04-30T19:08:10.439Z,13.78
2019-04-30T19:11:23.547Z,11.15
2019-04-30T19:14:39.544Z,11.70
2019-04-30T19:17:52.727Z,10.82
2019-04-30T19:20:51.509Z,10.88
2019-04-30T19:23:48.756Z,10.60
2019-04-30T19:26:45.481Z,11.10
2019-04-30T19:29:42.545Z,14.58
2019-04-30T19:32:39.453Z,12.90
2019-04-30T19:35:36.076Z,13.70
2019-04-30T19:38:35.965Z,8.55
2019-04-30T19:41:31.825Z,10.68
2019-04-30T19:44:29.387Z,11.15
2019-04-30T19:47:25.975Z,13.55
2019-04-30T19:50:22.473Z,14.05
2019-04-30T19:53:21.987Z,13.62
2019-04-30T19:56:16.217Z,11.60
2019-04-30T19:59:12.722Z,12.37
2019-04-30T20:02:10.657Z,12.63
2019-04-30T20:05:09.012Z,10.58
2019-04-30T20:08:05.959Z,13.28
2019-04-30T20:11:02.701Z,12.85
2019-04-30T20:13:58.983Z,12.65
2019-04-30T20:16:55.517Z,13.55
2019-04-30T20:19:51.523Z,16.42
2019-04-30T20:22:47.635Z,14.50
2019-04-30T20:25:44.350Z,16.25
2019-04-30T20:28:42.553Z,17.62
2019-04-30T20:31:38.610Z,17.42
2019-04-30T20:34:35.120Z,16.07
2019-04-30T20:37:31.241Z,16.27
2019-04-30T20:40:42.693Z,14.83
2019-04-30T20:43:28.610Z,17.12
2019-04-30T20:46:34.661Z,16.77
2019-04-30T20:49:21.840Z,21.35
2019-04-30T20:52:20.709Z,19.62
2019-04-30T20:55:16.697Z,20.45
2019-04-30T20:58:13.255Z,21.65
2019-04-30T21:01:12.028Z,17.15
2019-04-30T21:04:08.455Z,18.05
2019-04-30T21:07:04.980Z,20.55
2019-04-30T21:10:01.695Z,19.30
2019-04-30T21:12:58.323Z,19.90
2019-04-30T21:15:55.130Z,22.02
2019-04-30T21:18:50.831Z,18.32
2019-04-30T21:21:46.917Z,18.07
2019-04-30T21:24:44.014Z,21.00
2019-04-30T21:27:40.165Z,24.52
2019-04-30T21:30:36.895Z,29.63
2019-04-30T21:33:41.215Z,25.00
2019-04-30T21:36:39.553Z,21.68
2019-04-30T21:39:35.326Z,22.15
2019-04-30T21:42:31.266Z,26.62
2019-04-30T21:45:31.381Z,28.02
2019-04-30T21:48:28.786Z,30.92
2019-04-30T21:51:26.719Z,26.52
2019-04-30T21:54:22.733Z,25.48
2019-04-30T21:57:19.217Z,28.87
2019-04-30T22:00:21.296Z,28.35
2019-04-30T22:03:19.715Z,30.50
2019-04-30T22:06:15.551Z,26.57
2019-04-30T22:09:12.232Z,23.05
2019-04-30T22:12:10.421Z,25.08
2019-04-30T22:15:07.523Z,23.27
2019-04-30T22:18:04.383Z,22.07
2019-04-30T22:21:01.174Z,22.22
2019-04-30T22:23:57.821Z,22.45
2019-04-30T22:26:54.167Z,21.50
2019-04-30T22:29:50.273Z,22.02
2019-04-30T22:32:46.126Z,21.87
2019-04-30T22:35:57.648Z,23.22
2019-04-30T22:39:13.385Z,24.80
2019-04-30T22:42:36.512Z,25.05
2019-04-30T22:45:38.258Z,24.47
2019-04-30T22:48:35.773Z,23.10
2019-04-30T22:51:34.424Z,25.12
2019-04-30T22:54:30.389Z,20.97
2019-04-30T22:57:27.101Z,25.40
2019-04-30T23:00:41.513Z,21.15
2019-04-30T23:03:37.757Z,22.37
2019-04-30T23:06:33.622Z,24.10
2019-04-30T23:09:29.981Z,21.57
2019-04-30T23:12:26.882Z,22.93
2019-04-30T23:15:23.853Z,21.73
2019-04-30T23:18:19.780Z,25.08
2019-04-30T23:21:15.321Z,23.35
2019-04-30T23:24:12.054Z,24.07
2019-04-30T23:27:08.632Z,24.25
2019-04-30T23:30:04.201Z,23.00
2019-04-30T23:33:00.134Z,22.48
2019-04-30T23:35:56.485Z,27.10
2019-04-30T23:38:52.534Z,20.82
2019-04-30T23:41:48.905Z,22.25
2019-04-30T23:44:45.179Z,23.87
2019-04-30T23:47:41.750Z,26.07
2019-04-30T23:50:38.551Z,23.87
2019-04-30T23:53:34.955Z,23.47
2019-04-30T23:56:31.710Z,24.23
2019-04-30T23:59:28.288Z,28.10
